sensor_id;sensor_type;location;lat;lon;timestamp;temperature;humidity
76239;SHT30;65043;48.392;-4.472;2023-11-19T00:02:25;15.11;84.35
76239;SHT30;65043;48.392;-4.472;2023-11-19T00:04:50;15.08;84.42
76239;SHT30;65043;48.392;-4.472;2023-11-19T00:07:16;15.11;84.19
76239;SHT30;65043;48.392;-4.472;2023-11-19T00:09:41;15.08;84.14
76239;SHT30;65043;48.392;-4.472;2023-11-19T00:12:08;15.06;84.18
76239;SHT30;65043;48.392;-4.472;2023-11-19T00:14:34;15.10;84.39
76239;SHT30;65043;48.392;-4.472;2023-11-19T00:17:00;15.06;84.25
76239;SHT30;65043;48.392;-4.472;2023-11-19T00:19:28;15.08;84.26
76239;SHT30;65043;48.392;-4.472;2023-11-19T00:21:53;15.07;84.26
76239;SHT30;65043;48.392;-4.472;2023-11-19T00:24:19;15.04;84.33
76239;SHT30;65043;48.392;-4.472;2023-11-19T00:26:45;15.03;84.35
76239;SHT30;65043;48.392;-4.472;2023-11-19T00:29:11;15.03;84.60
76239;SHT30;65043;48.392;-4.472;2023-11-19T00:31:38;15.04;84.42
76239;SHT30;65043;48.392;-4.472;2023-11-19T00:34:03;15.03;84.41
76239;SHT30;65043;48.392;-4.472;2023-11-19T00:36:31;15.03;84.54
76239;SHT30;65043;48.392;-4.472;2023-11-19T00:38:57;15.04;84.53
76239;SHT30;65043;48.392;-4.472;2023-11-19T00:41:23;15.01;84.75
76239;SHT30;65043;48.392;-4.472;2023-11-19T00:43:48;15.00;84.82
76239;SHT30;65043;48.392;-4.472;2023-11-19T00:46:14;15.00;84.84
76239;SHT30;65043;48.392;-4.472;2023-11-19T00:48:40;15.03;84.83
76239;SHT30;65043;48.392;-4.472;2023-11-19T00:51:06;15.01;84.93
76239;SHT30;65043;48.392;-4.472;2023-11-19T00:53:31;15.03;85.06
76239;SHT30;65043;48.392;-4.472;2023-11-19T00:56:00;15.07;84.94
76239;SHT30;65043;48.392;-4.472;2023-11-19T00:58:25;15.04;85.01
76239;SHT30;65043;48.392;-4.472;2023-11-19T01:00:51;15.08;84.99
76239;SHT30;65043;48.392;-4.472;2023-11-19T01:03:17;15.06;84.85
76239;SHT30;65043;48.392;-4.472;2023-11-19T01:05:42;15.03;84.74
76239;SHT30;65043;48.392;-4.472;2023-11-19T01:08:08;15.04;84.82
76239;SHT30;65043;48.392;-4.472;2023-11-19T01:10:36;15.04;84.71
76239;SHT30;65043;48.392;-4.472;2023-11-19T01:13:02;15.06;84.61
76239;SHT30;65043;48.392;-4.472;2023-11-19T01:15:28;15.00;84.80
76239;SHT30;65043;48.392;-4.472;2023-11-19T01:17:54;15.04;84.71
76239;SHT30;65043;48.392;-4.472;2023-11-19T01:20:19;15.04;84.71
76239;SHT30;65043;48.392;-4.472;2023-11-19T01:22:45;15.07;84.63
76239;SHT30;65043;48.392;-4.472;2023-11-19T01:25:11;15.06;84.57
76239;SHT30;65043;48.392;-4.472;2023-11-19T01:27:36;15.03;84.59
76239;SHT30;65043;48.392;-4.472;2023-11-19T01:30:02;15.01;84.51
76239;SHT30;65043;48.392;-4.472;2023-11-19T01:32:31;14.99;84.45
76239;SHT30;65043;48.392;-4.472;2023-11-19T01:34:57;15.01;84.37
76239;SHT30;65043;48.392;-4.472;2023-11-19T01:37:23;15.01;84.54
76239;SHT30;65043;48.392;-4.472;2023-11-19T01:39:48;14.97;84.65
76239;SHT30;65043;48.392;-4.472;2023-11-19T01:42:15;14.91;84.80
76239;SHT30;65043;48.392;-4.472;2023-11-19T01:44:55;14.94;84.91
76239;SHT30;65043;48.392;-4.472;2023-11-19T01:47:22;14.99;84.81
76239;SHT30;65043;48.392;-4.472;2023-11-19T01:49:48;14.96;84.75
76239;SHT30;65043;48.392;-4.472;2023-11-19T01:52:14;14.94;84.77
76239;SHT30;65043;48.392;-4.472;2023-11-19T01:54:39;15.00;84.53
76239;SHT30;65043;48.392;-4.472;2023-11-19T01:57:06;14.97;84.41
76239;SHT30;65043;48.392;-4.472;2023-11-19T01:59:32;15.01;84.18
76239;SHT30;65043;48.392;-4.472;2023-11-19T02:01:58;15.00;84.33
76239;SHT30;65043;48.392;-4.472;2023-11-19T02:04:23;15.03;84.00
76239;SHT30;65043;48.392;-4.472;2023-11-19T02:06:51;15.00;84.11
76239;SHT30;65043;48.392;-4.472;2023-11-19T02:09:19;15.01;83.70
76239;SHT30;65043;48.392;-4.472;2023-11-19T02:11:45;15.00;82.94
76239;SHT30;65043;48.392;-4.472;2023-11-19T02:14:15;15.01;83.09
76239;SHT30;65043;48.392;-4.472;2023-11-19T02:16:40;15.03;83.25
76239;SHT30;65043;48.392;-4.472;2023-11-19T02:19:06;15.01;83.00
76239;SHT30;65043;48.392;-4.472;2023-11-19T02:21:33;14.99;83.14
76239;SHT30;65043;48.392;-4.472;2023-11-19T02:23:58;14.96;82.85
76239;SHT30;65043;48.392;-4.472;2023-11-19T02:26:29;15.00;82.88
76239;SHT30;65043;48.392;-4.472;2023-11-19T02:28:58;14.96;82.53
76239;SHT30;65043;48.392;-4.472;2023-11-19T02:31:24;14.94;83.02
76239;SHT30;65043;48.392;-4.472;2023-11-19T02:33:49;14.94;82.73
76239;SHT30;65043;48.392;-4.472;2023-11-19T02:36:15;14.94;82.78
76239;SHT30;65043;48.392;-4.472;2023-11-19T02:38:42;14.94;82.96
76239;SHT30;65043;48.392;-4.472;2023-11-19T02:41:09;14.99;83.00
76239;SHT30;65043;48.392;-4.472;2023-11-19T02:43:36;14.97;82.54
76239;SHT30;65043;48.392;-4.472;2023-11-19T02:46:03;14.91;82.32
76239;SHT30;65043;48.392;-4.472;2023-11-19T02:48:33;14.87;82.47
76239;SHT30;65043;48.392;-4.472;2023-11-19T02:51:00;14.89;82.73
76239;SHT30;65043;48.392;-4.472;2023-11-19T02:53:26;14.89;82.53
76239;SHT30;65043;48.392;-4.472;2023-11-19T02:55:54;14.87;82.55
76239;SHT30;65043;48.392;-4.472;2023-11-19T02:58:29;14.84;82.89
76239;SHT30;65043;48.392;-4.472;2023-11-19T03:00:55;14.90;82.52
76239;SHT30;65043;48.392;-4.472;2023-11-19T03:03:25;14.90;82.46
76239;SHT30;65043;48.392;-4.472;2023-11-19T03:05:54;14.93;82.26
76239;SHT30;65043;48.392;-4.472;2023-11-19T03:08:20;14.89;82.22
76239;SHT30;65043;48.392;-4.472;2023-11-19T03:10:46;14.91;82.35
76239;SHT30;65043;48.392;-4.472;2023-11-19T03:13:14;14.87;82.29
76239;SHT30;65043;48.392;-4.472;2023-11-19T03:15:41;14.89;82.09
76239;SHT30;65043;48.392;-4.472;2023-11-19T03:18:09;14.91;82.22
76239;SHT30;65043;48.392;-4.472;2023-11-19T03:20:34;14.91;81.72
76239;SHT30;65043;48.392;-4.472;2023-11-19T03:23:00;14.90;81.28
76239;SHT30;65043;48.392;-4.472;2023-11-19T03:25:28;14.93;80.99
76239;SHT30;65043;48.392;-4.472;2023-11-19T03:27:59;14.90;80.82
76239;SHT30;65043;48.392;-4.472;2023-11-19T03:30:27;14.90;80.96
76239;SHT30;65043;48.392;-4.472;2023-11-19T03:32:54;14.93;80.81
76239;SHT30;65043;48.392;-4.472;2023-11-19T03:35:19;14.91;80.77
76239;SHT30;65043;48.392;-4.472;2023-11-19T03:37:45;14.87;80.34
76239;SHT30;65043;48.392;-4.472;2023-11-19T03:40:10;14.89;80.30
76239;SHT30;65043;48.392;-4.472;2023-11-19T03:42:36;14.86;80.14
76239;SHT30;65043;48.392;-4.472;2023-11-19T03:45:02;14.84;80.00
76239;SHT30;65043;48.392;-4.472;2023-11-19T03:47:29;14.89;80.31
76239;SHT30;65043;48.392;-4.472;2023-11-19T03:49:54;14.91;80.03
76239;SHT30;65043;48.392;-4.472;2023-11-19T03:52:20;14.89;79.86
76239;SHT30;65043;48.392;-4.472;2023-11-19T03:54:45;14.90;80.00
76239;SHT30;65043;48.392;-4.472;2023-11-19T03:57:14;14.84;79.89
76239;SHT30;65043;48.392;-4.472;2023-11-19T03:59:41;14.86;80.28
76239;SHT30;65043;48.392;-4.472;2023-11-19T04:02:06;14.84;79.72
76239;SHT30;65043;48.392;-4.472;2023-11-19T04:04:32;14.84;79.82
76239;SHT30;65043;48.392;-4.472;2023-11-19T04:07:00;14.83;80.09
76239;SHT30;65043;48.392;-4.472;2023-11-19T04:09:29;14.84;79.86
76239;SHT30;65043;48.392;-4.472;2023-11-19T04:11:55;14.87;80.07
76239;SHT30;65043;48.392;-4.472;2023-11-19T04:14:20;14.84;79.59
76239;SHT30;65043;48.392;-4.472;2023-11-19T04:16:46;14.86;80.03
76239;SHT30;65043;48.392;-4.472;2023-11-19T04:19:12;14.86;79.78
76239;SHT30;65043;48.392;-4.472;2023-11-19T04:21:40;14.79;79.61
76239;SHT30;65043;48.392;-4.472;2023-11-19T04:24:07;14.81;79.78
76239;SHT30;65043;48.392;-4.472;2023-11-19T04:26:33;14.76;79.17
76239;SHT30;65043;48.392;-4.472;2023-11-19T04:28:59;14.77;79.01
76239;SHT30;65043;48.392;-4.472;2023-11-19T04:31:29;14.76;79.32
76239;SHT30;65043;48.392;-4.472;2023-11-19T04:33:56;14.76;79.14
76239;SHT30;65043;48.392;-4.472;2023-11-19T04:36:22;14.73;79.18
76239;SHT30;65043;48.392;-4.472;2023-11-19T04:38:50;14.73;79.66
76239;SHT30;65043;48.392;-4.472;2023-11-19T04:41:15;14.75;79.18
76239;SHT30;65043;48.392;-4.472;2023-11-19T04:43:41;14.70;79.33
76239;SHT30;65043;48.392;-4.472;2023-11-19T04:46:06;14.68;78.81
76239;SHT30;65043;48.392;-4.472;2023-11-19T04:48:32;14.69;79.18
76239;SHT30;65043;48.392;-4.472;2023-11-19T04:50:57;14.66;78.89
76239;SHT30;65043;48.392;-4.472;2023-11-19T04:53:23;14.65;78.60
76239;SHT30;65043;48.392;-4.472;2023-11-19T04:55:48;14.66;79.04
76239;SHT30;65043;48.392;-4.472;2023-11-19T04:58:14;14.63;78.57
76239;SHT30;65043;48.392;-4.472;2023-11-19T05:00:39;14.63;78.73
76239;SHT30;65043;48.392;-4.472;2023-11-19T05:03:05;14.60;78.90
76239;SHT30;65043;48.392;-4.472;2023-11-19T05:05:30;14.59;78.62
76239;SHT30;65043;48.392;-4.472;2023-11-19T05:07:56;14.60;78.66
76239;SHT30;65043;48.392;-4.472;2023-11-19T05:10:22;14.59;78.56
76239;SHT30;65043;48.392;-4.472;2023-11-19T05:12:47;14.59;78.26
76239;SHT30;65043;48.392;-4.472;2023-11-19T05:15:13;14.55;77.95
76239;SHT30;65043;48.392;-4.472;2023-11-19T05:17:39;14.58;78.38
76239;SHT30;65043;48.392;-4.472;2023-11-19T05:20:05;14.60;77.63
76239;SHT30;65043;48.392;-4.472;2023-11-19T05:22:41;14.63;77.68
76239;SHT30;65043;48.392;-4.472;2023-11-19T05:25:07;14.63;78.30
76239;SHT30;65043;48.392;-4.472;2023-11-19T05:27:35;14.62;77.89
76239;SHT30;65043;48.392;-4.472;2023-11-19T05:30:02;14.60;77.75
76239;SHT30;65043;48.392;-4.472;2023-11-19T05:32:28;14.58;78.33
76239;SHT30;65043;48.392;-4.472;2023-11-19T05:34:53;14.58;78.48
76239;SHT30;65043;48.392;-4.472;2023-11-19T05:37:19;14.56;78.40
76239;SHT30;65043;48.392;-4.472;2023-11-19T05:39:45;14.55;77.93
76239;SHT30;65043;48.392;-4.472;2023-11-19T05:42:10;14.53;78.49
76239;SHT30;65043;48.392;-4.472;2023-11-19T05:44:36;14.49;78.11
76239;SHT30;65043;48.392;-4.472;2023-11-19T05:47:03;14.46;78.31
76239;SHT30;65043;48.392;-4.472;2023-11-19T05:49:29;14.49;77.95
76239;SHT30;65043;48.392;-4.472;2023-11-19T05:51:54;14.46;78.20
76239;SHT30;65043;48.392;-4.472;2023-11-19T05:54:21;14.46;77.33
76239;SHT30;65043;48.392;-4.472;2023-11-19T05:56:49;14.46;78.03
76239;SHT30;65043;48.392;-4.472;2023-11-19T05:59:15;14.46;77.81
76239;SHT30;65043;48.392;-4.472;2023-11-19T06:01:43;14.42;77.79
76239;SHT30;65043;48.392;-4.472;2023-11-19T06:04:09;14.41;78.25
76239;SHT30;65043;48.392;-4.472;2023-11-19T06:06:35;14.43;78.40
76239;SHT30;65043;48.392;-4.472;2023-11-19T06:09:01;14.43;79.02
76239;SHT30;65043;48.392;-4.472;2023-11-19T06:11:27;14.48;79.03
76239;SHT30;65043;48.392;-4.472;2023-11-19T06:13:53;14.46;79.01
76239;SHT30;65043;48.392;-4.472;2023-11-19T06:16:18;14.48;79.10
76239;SHT30;65043;48.392;-4.472;2023-11-19T06:18:44;14.49;78.31
76239;SHT30;65043;48.392;-4.472;2023-11-19T06:21:10;14.49;78.42
76239;SHT30;65043;48.392;-4.472;2023-11-19T06:23:36;14.49;78.25
76239;SHT30;65043;48.392;-4.472;2023-11-19T06:26:02;14.53;78.29
76239;SHT30;65043;48.392;-4.472;2023-11-19T06:28:27;14.49;78.19
76239;SHT30;65043;48.392;-4.472;2023-11-19T06:30:53;14.50;78.37
76239;SHT30;65043;48.392;-4.472;2023-11-19T06:33:18;14.49;78.29
76239;SHT30;65043;48.392;-4.472;2023-11-19T06:35:44;14.48;78.38
76239;SHT30;65043;48.392;-4.472;2023-11-19T06:38:10;14.49;78.44
76239;SHT30;65043;48.392;-4.472;2023-11-19T06:40:36;14.48;78.44
76239;SHT30;65043;48.392;-4.472;2023-11-19T06:43:02;14.49;78.94
76239;SHT30;65043;48.392;-4.472;2023-11-19T06:45:33;14.48;78.81
76239;SHT30;65043;48.392;-4.472;2023-11-19T06:48:06;14.50;78.61
76239;SHT30;65043;48.392;-4.472;2023-11-19T06:50:32;14.45;78.57
76239;SHT30;65043;48.392;-4.472;2023-11-19T06:52:57;14.45;78.72
76239;SHT30;65043;48.392;-4.472;2023-11-19T06:55:23;14.48;78.74
76239;SHT30;65043;48.392;-4.472;2023-11-19T06:57:48;14.50;79.03
76239;SHT30;65043;48.392;-4.472;2023-11-19T07:00:14;14.52;78.96
76239;SHT30;65043;48.392;-4.472;2023-11-19T07:02:40;14.53;78.87
76239;SHT30;65043;48.392;-4.472;2023-11-19T07:05:06;14.50;78.80
76239;SHT30;65043;48.392;-4.472;2023-11-19T07:07:33;14.50;78.66
76239;SHT30;65043;48.392;-4.472;2023-11-19T07:09:59;14.53;78.37
76239;SHT30;65043;48.392;-4.472;2023-11-19T07:12:25;14.52;78.57
76239;SHT30;65043;48.392;-4.472;2023-11-19T07:14:52;14.53;78.13
76239;SHT30;65043;48.392;-4.472;2023-11-19T07:17:21;14.52;78.53
76239;SHT30;65043;48.392;-4.472;2023-11-19T07:19:47;14.52;78.27
76239;SHT30;65043;48.392;-4.472;2023-11-19T07:22:16;14.50;78.08
76239;SHT30;65043;48.392;-4.472;2023-11-19T07:24:42;14.52;78.02
76239;SHT30;65043;48.392;-4.472;2023-11-19T07:27:08;14.52;78.38
76239;SHT30;65043;48.392;-4.472;2023-11-19T07:29:37;14.56;77.92
76239;SHT30;65043;48.392;-4.472;2023-11-19T07:32:02;14.53;77.80
76239;SHT30;65043;48.392;-4.472;2023-11-19T07:34:28;14.52;77.58
76239;SHT30;65043;48.392;-4.472;2023-11-19T07:36:54;14.55;77.73
76239;SHT30;65043;48.392;-4.472;2023-11-19T07:39:22;14.55;78.18
76239;SHT30;65043;48.392;-4.472;2023-11-19T07:41:48;14.55;78.34
76239;SHT30;65043;48.392;-4.472;2023-11-19T07:44:14;14.49;78.59
76239;SHT30;65043;48.392;-4.472;2023-11-19T07:46:39;14.53;78.61
76239;SHT30;65043;48.392;-4.472;2023-11-19T07:49:07;14.53;78.60
76239;SHT30;65043;48.392;-4.472;2023-11-19T07:51:33;14.53;78.23
76239;SHT30;65043;48.392;-4.472;2023-11-19T07:53:58;14.53;77.67
76239;SHT30;65043;48.392;-4.472;2023-11-19T07:56:23;14.53;77.73
76239;SHT30;65043;48.392;-4.472;2023-11-19T07:58:49;14.55;77.74
76239;SHT30;65043;48.392;-4.472;2023-11-19T08:01:16;14.56;78.02
76239;SHT30;65043;48.392;-4.472;2023-11-19T08:03:41;14.58;77.61
76239;SHT30;65043;48.392;-4.472;2023-11-19T08:06:06;14.59;77.64
76239;SHT30;65043;48.392;-4.472;2023-11-19T08:08:32;14.63;78.21
76239;SHT30;65043;48.392;-4.472;2023-11-19T08:10:58;14.63;78.14
76239;SHT30;65043;48.392;-4.472;2023-11-19T08:13:24;14.60;78.24
76239;SHT30;65043;48.392;-4.472;2023-11-19T08:15:50;14.60;78.33
76239;SHT30;65043;48.392;-4.472;2023-11-19T08:18:17;14.59;78.48
76239;SHT30;65043;48.392;-4.472;2023-11-19T08:20:43;14.59;78.43
76239;SHT30;65043;48.392;-4.472;2023-11-19T08:23:10;14.60;78.19
76239;SHT30;65043;48.392;-4.472;2023-11-19T08:25:38;14.60;78.15
76239;SHT30;65043;48.392;-4.472;2023-11-19T08:28:04;14.58;77.77
76239;SHT30;65043;48.392;-4.472;2023-11-19T08:30:30;14.60;77.94
76239;SHT30;65043;48.392;-4.472;2023-11-19T08:32:55;14.62;77.63
76239;SHT30;65043;48.392;-4.472;2023-11-19T08:35:21;14.62;77.13
76239;SHT30;65043;48.392;-4.472;2023-11-19T08:37:47;14.63;77.07
76239;SHT30;65043;48.392;-4.472;2023-11-19T08:40:12;14.62;76.41
76239;SHT30;65043;48.392;-4.472;2023-11-19T08:42:40;14.58;76.32
76239;SHT30;65043;48.392;-4.472;2023-11-19T08:45:06;14.58;76.37
76239;SHT30;65043;48.392;-4.472;2023-11-19T08:47:32;14.60;76.44
76239;SHT30;65043;48.392;-4.472;2023-11-19T08:49:57;14.59;76.13
76239;SHT30;65043;48.392;-4.472;2023-11-19T08:52:23;14.60;76.42
76239;SHT30;65043;48.392;-4.472;2023-11-19T08:54:48;14.63;76.71
76239;SHT30;65043;48.392;-4.472;2023-11-19T08:57:14;14.63;76.40
76239;SHT30;65043;48.392;-4.472;2023-11-19T08:59:39;14.69;76.24
76239;SHT30;65043;48.392;-4.472;2023-11-19T09:02:06;14.73;76.03
76239;SHT30;65043;48.392;-4.472;2023-11-19T09:04:32;14.77;76.36
76239;SHT30;65043;48.392;-4.472;2023-11-19T09:06:58;14.79;76.30
76239;SHT30;65043;48.392;-4.472;2023-11-19T09:09:23;14.83;76.41
76239;SHT30;65043;48.392;-4.472;2023-11-19T09:11:49;14.87;76.45
76239;SHT30;65043;48.392;-4.472;2023-11-19T09:14:15;14.90;76.26
76239;SHT30;65043;48.392;-4.472;2023-11-19T09:16:40;14.87;75.13
76239;SHT30;65043;48.392;-4.472;2023-11-19T09:19:06;14.90;75.37
76239;SHT30;65043;48.392;-4.472;2023-11-19T09:21:31;14.90;75.03
76239;SHT30;65043;48.392;-4.472;2023-11-19T09:23:59;14.94;73.88
76239;SHT30;65043;48.392;-4.472;2023-11-19T09:26:25;14.99;74.40
76239;SHT30;65043;48.392;-4.472;2023-11-19T09:28:50;15.01;73.70
76239;SHT30;65043;48.392;-4.472;2023-11-19T09:31:17;14.99;73.71
76239;SHT30;65043;48.392;-4.472;2023-11-19T09:33:43;14.94;73.58
76239;SHT30;65043;48.392;-4.472;2023-11-19T09:42:52;14.91;73.94
76239;SHT30;65043;48.392;-4.472;2023-11-19T09:45:20;14.89;74.21
76239;SHT30;65043;48.392;-4.472;2023-11-19T09:47:46;14.89;74.28
76239;SHT30;65043;48.392;-4.472;2023-11-19T09:50:17;14.87;74.20
76239;SHT30;65043;48.392;-4.472;2023-11-19T09:52:48;14.90;73.66
76239;SHT30;65043;48.392;-4.472;2023-11-19T09:55:21;14.90;73.19
76239;SHT30;65043;48.392;-4.472;2023-11-19T09:57:47;14.91;73.76
76239;SHT30;65043;48.392;-4.472;2023-11-19T10:00:14;14.91;73.62
76239;SHT30;65043;48.392;-4.472;2023-11-19T10:02:41;14.93;73.80
76239;SHT30;65043;48.392;-4.472;2023-11-19T10:05:07;14.94;73.95
76239;SHT30;65043;48.392;-4.472;2023-11-19T10:07:33;14.96;73.56
76239;SHT30;65043;48.392;-4.472;2023-11-19T10:10:00;14.97;73.81
76239;SHT30;65043;48.392;-4.472;2023-11-19T10:12:27;14.97;73.81
76239;SHT30;65043;48.392;-4.472;2023-11-19T10:14:57;15.03;74.10
76239;SHT30;65043;48.392;-4.472;2023-11-19T10:17:28;15.04;73.33
76239;SHT30;65043;48.392;-4.472;2023-11-19T10:19:56;15.06;73.62
76239;SHT30;65043;48.392;-4.472;2023-11-19T10:22:24;15.07;73.54
76239;SHT30;65043;48.392;-4.472;2023-11-19T10:24:51;15.08;73.26
76239;SHT30;65043;48.392;-4.472;2023-11-19T10:27:20;15.16;73.38
76239;SHT30;65043;48.392;-4.472;2023-11-19T10:29:46;15.18;72.57
76239;SHT30;65043;48.392;-4.472;2023-11-19T10:32:13;15.21;73.31
76239;SHT30;65043;48.392;-4.472;2023-11-19T10:34:40;15.24;73.78
76239;SHT30;65043;48.392;-4.472;2023-11-19T10:37:06;15.21;73.82
76239;SHT30;65043;48.392;-4.472;2023-11-19T10:39:51;15.21;74.24
76239;SHT30;65043;48.392;-4.472;2023-11-19T10:42:19;15.24;74.32
76239;SHT30;65043;48.392;-4.472;2023-11-19T10:44:45;15.27;74.19
76239;SHT30;65043;48.392;-4.472;2023-11-19T10:47:13;15.27;72.97
76239;SHT30;65043;48.392;-4.472;2023-11-19T10:49:46;15.30;72.97
76239;SHT30;65043;48.392;-4.472;2023-11-19T10:52:17;15.27;72.39
76239;SHT30;65043;48.392;-4.472;2023-11-19T10:54:44;15.24;71.22
76239;SHT30;65043;48.392;-4.472;2023-11-19T10:57:20;15.21;72.02
76239;SHT30;65043;48.392;-4.472;2023-11-19T11:00:00;15.21;71.17
76239;SHT30;65043;48.392;-4.472;2023-11-19T11:02:28;15.20;71.70
76239;SHT30;65043;48.392;-4.472;2023-11-19T11:04:57;15.12;72.54
76239;SHT30;65043;48.392;-4.472;2023-11-19T11:07:23;15.12;72.57
76239;SHT30;65043;48.392;-4.472;2023-11-19T11:09:51;15.10;72.62
76239;SHT30;65043;48.392;-4.472;2023-11-19T11:12:17;15.08;72.81
76239;SHT30;65043;48.392;-4.472;2023-11-19T11:14:47;15.04;71.90
76239;SHT30;65043;48.392;-4.472;2023-11-19T11:17:17;15.03;72.09
76239;SHT30;65043;48.392;-4.472;2023-11-19T11:19:42;15.08;72.29
76239;SHT30;65043;48.392;-4.472;2023-11-19T11:22:09;15.14;72.79
76239;SHT30;65043;48.392;-4.472;2023-11-19T11:25:22;15.14;72.76
76239;SHT30;65043;48.392;-4.472;2023-11-19T11:28:05;15.12;72.63
76239;SHT30;65043;48.392;-4.472;2023-11-19T11:36:49;15.11;72.64
76239;SHT30;65043;48.392;-4.472;2023-11-19T11:39:21;15.10;73.02
76239;SHT30;65043;48.392;-4.472;2023-11-19T11:41:47;15.14;73.02
76239;SHT30;65043;48.392;-4.472;2023-11-19T11:47:23;15.18;73.38
76239;SHT30;65043;48.392;-4.472;2023-11-19T11:49:49;15.23;73.30
76239;SHT30;65043;48.392;-4.472;2023-11-19T11:52:16;15.23;73.60
76239;SHT30;65043;48.392;-4.472;2023-11-19T11:54:42;15.23;73.55
76239;SHT30;65043;48.392;-4.472;2023-11-19T11:57:12;15.20;73.89
76239;SHT30;65043;48.392;-4.472;2023-11-19T12:02:11;15.28;74.09
76239;SHT30;65043;48.392;-4.472;2023-11-19T12:04:39;15.35;74.12
76239;SHT30;65043;48.392;-4.472;2023-11-19T12:07:06;15.48;73.49
76239;SHT30;65043;48.392;-4.472;2023-11-19T12:09:32;15.75;72.37
76239;SHT30;65043;48.392;-4.472;2023-11-19T12:12:17;15.73;72.23
76239;SHT30;65043;48.392;-4.472;2023-11-19T12:15:01;15.63;72.77
76239;SHT30;65043;48.392;-4.472;2023-11-19T12:20:03;15.69;73.25
76239;SHT30;65043;48.392;-4.472;2023-11-19T12:22:30;15.78;72.93
76239;SHT30;65043;48.392;-4.472;2023-11-19T12:24:56;15.85;73.09
76239;SHT30;65043;48.392;-4.472;2023-11-19T12:27:22;15.85;72.59
76239;SHT30;65043;48.392;-4.472;2023-11-19T12:29:48;15.81;72.32
76239;SHT30;65043;48.392;-4.472;2023-11-19T12:32:14;15.79;72.68
76239;SHT30;65043;48.392;-4.472;2023-11-19T12:34:39;15.65;72.42
76239;SHT30;65043;48.392;-4.472;2023-11-19T12:37:05;15.58;73.55
76239;SHT30;65043;48.392;-4.472;2023-11-19T12:39:31;15.57;73.21
76239;SHT30;65043;48.392;-4.472;2023-11-19T12:41:57;15.54;74.25
76239;SHT30;65043;48.392;-4.472;2023-11-19T12:44:25;15.62;75.14
76239;SHT30;65043;48.392;-4.472;2023-11-19T12:47:02;15.71;75.05
76239;SHT30;65043;48.392;-4.472;2023-11-19T12:49:28;15.75;74.57
76239;SHT30;65043;48.392;-4.472;2023-11-19T12:51:54;15.78;74.90
76239;SHT30;65043;48.392;-4.472;2023-11-19T12:54:19;15.78;74.38
76239;SHT30;65043;48.392;-4.472;2023-11-19T12:56:54;15.79;73.92
76239;SHT30;65043;48.392;-4.472;2023-11-19T12:59:19;15.72;72.14
76239;SHT30;65043;48.392;-4.472;2023-11-19T13:01:55;15.68;72.59
76239;SHT30;65043;48.392;-4.472;2023-11-19T13:04:21;15.63;71.82
76239;SHT30;65043;48.392;-4.472;2023-11-19T13:06:47;15.59;71.76
76239;SHT30;65043;48.392;-4.472;2023-11-19T13:09:23;15.62;72.80
76239;SHT30;65043;48.392;-4.472;2023-11-19T13:11:50;15.63;71.83
76239;SHT30;65043;48.392;-4.472;2023-11-19T13:14:15;15.61;72.27
76239;SHT30;65043;48.392;-4.472;2023-11-19T13:16:42;15.58;72.17
76239;SHT30;65043;48.392;-4.472;2023-11-19T13:19:08;15.49;71.96
76239;SHT30;65043;48.392;-4.472;2023-11-19T13:21:36;15.48;71.77
76239;SHT30;65043;48.392;-4.472;2023-11-19T13:24:08;15.51;71.92
76239;SHT30;65043;48.392;-4.472;2023-11-19T13:26:33;15.54;71.96
76239;SHT30;65043;48.392;-4.472;2023-11-19T13:29:00;15.49;71.74
76239;SHT30;65043;48.392;-4.472;2023-11-19T13:31:26;15.47;71.98
76239;SHT30;65043;48.392;-4.472;2023-11-19T13:33:51;15.44;72.02
76239;SHT30;65043;48.392;-4.472;2023-11-19T13:36:17;15.47;72.42
76239;SHT30;65043;48.392;-4.472;2023-11-19T13:38:45;15.47;72.70
76239;SHT30;65043;48.392;-4.472;2023-11-19T13:41:12;15.45;72.74
76239;SHT30;65043;48.392;-4.472;2023-11-19T13:43:39;15.49;72.49
76239;SHT30;65043;48.392;-4.472;2023-11-19T13:46:05;15.49;72.61
76239;SHT30;65043;48.392;-4.472;2023-11-19T13:48:31;15.49;72.54
76239;SHT30;65043;48.392;-4.472;2023-11-19T13:50:56;15.51;72.86
76239;SHT30;65043;48.392;-4.472;2023-11-19T13:53:22;15.47;72.04
76239;SHT30;65043;48.392;-4.472;2023-11-19T13:55:49;15.41;72.82
76239;SHT30;65043;48.392;-4.472;2023-11-19T13:58:14;15.52;72.64
76239;SHT30;65043;48.392;-4.472;2023-11-19T14:00:41;15.48;72.20
76239;SHT30;65043;48.392;-4.472;2023-11-19T14:03:07;15.52;72.61
76239;SHT30;65043;48.392;-4.472;2023-11-19T14:05:33;15.48;72.00
76239;SHT30;65043;48.392;-4.472;2023-11-19T14:07:59;15.45;72.14
76239;SHT30;65043;48.392;-4.472;2023-11-19T14:10:24;15.42;72.51
76239;SHT30;65043;48.392;-4.472;2023-11-19T14:12:49;15.45;73.14
76239;SHT30;65043;48.392;-4.472;2023-11-19T14:15:15;15.44;72.61
76239;SHT30;65043;48.392;-4.472;2023-11-19T14:17:43;15.40;72.36
76239;SHT30;65043;48.392;-4.472;2023-11-19T14:20:09;15.37;71.98
76239;SHT30;65043;48.392;-4.472;2023-11-19T14:22:41;15.38;72.39
76239;SHT30;65043;48.392;-4.472;2023-11-19T14:25:07;15.37;72.38
76239;SHT30;65043;48.392;-4.472;2023-11-19T14:27:36;15.35;72.30
76239;SHT30;65043;48.392;-4.472;2023-11-19T14:30:04;15.38;72.82
76239;SHT30;65043;48.392;-4.472;2023-11-19T14:32:30;15.41;72.79
76239;SHT30;65043;48.392;-4.472;2023-11-19T14:34:56;15.35;72.95
76239;SHT30;65043;48.392;-4.472;2023-11-19T14:37:24;15.34;73.17
76239;SHT30;65043;48.392;-4.472;2023-11-19T14:39:49;15.41;73.18
76239;SHT30;65043;48.392;-4.472;2023-11-19T14:42:16;15.41;73.18
76239;SHT30;65043;48.392;-4.472;2023-11-19T14:44:42;15.41;72.99
76239;SHT30;65043;48.392;-4.472;2023-11-19T14:47:07;15.54;72.70
76239;SHT30;65043;48.392;-4.472;2023-11-19T14:49:35;15.58;72.43
76239;SHT30;65043;48.392;-4.472;2023-11-19T14:52:00;15.68;72.17
76239;SHT30;65043;48.392;-4.472;2023-11-19T14:54:26;15.71;71.84
76239;SHT30;65043;48.392;-4.472;2023-11-19T14:56:51;15.65;72.09
76239;SHT30;65043;48.392;-4.472;2023-11-19T14:59:17;15.57;72.15
76239;SHT30;65043;48.392;-4.472;2023-11-19T15:01:45;15.47;72.32
76239;SHT30;65043;48.392;-4.472;2023-11-19T15:04:10;15.45;72.80
76239;SHT30;65043;48.392;-4.472;2023-11-19T15:06:37;15.37;72.91
76239;SHT30;65043;48.392;-4.472;2023-11-19T15:09:03;15.37;73.41
76239;SHT30;65043;48.392;-4.472;2023-11-19T15:11:32;15.31;74.16
76239;SHT30;65043;48.392;-4.472;2023-11-19T15:13:58;15.37;74.77
76239;SHT30;65043;48.392;-4.472;2023-11-19T15:16:24;15.42;74.86
76239;SHT30;65043;48.392;-4.472;2023-11-19T15:18:59;15.44;74.74
76239;SHT30;65043;48.392;-4.472;2023-11-19T15:21:26;15.40;74.75
76239;SHT30;65043;48.392;-4.472;2023-11-19T15:23:55;15.42;74.69
76239;SHT30;65043;48.392;-4.472;2023-11-19T15:26:22;15.37;73.98
76239;SHT30;65043;48.392;-4.472;2023-11-19T15:28:47;15.30;73.79
76239;SHT30;65043;48.392;-4.472;2023-11-19T15:31:13;15.26;73.62
76239;SHT30;65043;48.392;-4.472;2023-11-19T15:33:41;15.26;73.37
76239;SHT30;65043;48.392;-4.472;2023-11-19T15:36:07;15.21;73.26